^^
Station Historical Data
Daily Summary for July 8, 2021 Units:  English    Metric   Both
Daily Weekly Monthly Yearly
  High: Low: Average:
Temperature: 65.8 °F 58.8 °F 62.2 °F
Dew Point: 64 °F 55 °F 59.6 °F
Humidity: 94% 86% 91%
Wind Speed: 5mph 0mph 3.1mph
Wind Gust: 10mph - -
Wind- - SE
Pressure: 29.91 in 29.78 in -
Precipitation: 0.55 in    
 
 
Tabular Data for July 8, 2021
Time Temperature Dew Point Pressure Wind Wind Speed Wind Gust Humidity Rainfall Rate (Hourly) solar
00:00 64.3 °F 61.9 °F 29.84 in ENE 3 mph 3 mph 92% 0.10 in 0 W/m2
00:05 64.3 °F 61.9 °F 29.84 in NE 3 mph 3 mph 92% 0.07 in 0 W/m2
00:10 64.4 °F 62 °F 29.83 in NE 3 mph 3 mph 92% 0.13 in 0 W/m2
00:15 64.6 °F 62.2 °F 29.83 in NE 2 mph 3 mph 92% 0.06 in 0 W/m2
00:20 64.7 °F 62.3 °F 29.84 in NNE 2 mph 2 mph 92% 0.04 in 0 W/m2
00:25 64.8 °F 62.4 °F 29.84 in NE 2 mph 3 mph 92% 0.00 in 0 W/m2
00:30 64.9 °F 62.8 °F 29.84 in North 3 mph 4 mph 93% 0.00 in 0 W/m2
00:35 65 °F 62.9 °F 29.84 in East 3 mph 4 mph 93% 0.00 in 0 W/m2
00:40 64.9 °F 62.8 °F 29.84 in North 2 mph 3 mph 93% 0.00 in 0 W/m2
00:45 64.8 °F 62.4 °F 29.84 in North 3 mph 4 mph 92% 0.00 in 0 W/m2
00:50 64.6 °F 62.2 °F 29.84 in SW 3 mph 3 mph 92% 0.00 in 0 W/m2
00:55 64.4 °F 62.3 °F 29.84 in ENE 2 mph 5 mph 93% 0.00 in 0 W/m2
01:00 64.3 °F 62.2 °F 29.84 in ENE 2 mph 3 mph 93% 0.00 in 0 W/m2
01:05 64.2 °F 62.1 °F 29.85 in North 2 mph 3 mph 93% 0.00 in 0 W/m2
01:10 64.1 °F 61.7 °F 29.84 in NNE 2 mph 2 mph 92% 0.00 in 0 W/m2
01:15 64 °F 61.6 °F 29.84 in NE 3 mph 3 mph 92% 0.00 in 0 W/m2
01:20 63.8 °F 61.4 °F 29.84 in NNE 3 mph 3 mph 92% 0.00 in 0 W/m2
01:25 63.8 °F 61.7 °F 29.84 in North 3 mph 3 mph 93% 0.00 in 0 W/m2
01:30 63.7 °F 61.6 °F 29.84 in NNE 2 mph 3 mph 93% 0.00 in 0 W/m2
01:35 63.6 °F 61.5 °F 29.84 in NE 2 mph 3 mph 93% 0.00 in 0 W/m2
01:40 63.6 °F 61.5 °F 29.83 in ENE 2 mph 2 mph 93% 0.00 in 0 W/m2
01:45 63.6 °F 61.5 °F 29.83 in NE 2 mph 2 mph 93% 0.00 in 0 W/m2
01:50 63.6 °F 61.5 °F 29.83 in North 2 mph 5 mph 93% 0.00 in 0 W/m2
01:55 63.7 °F 61.6 °F 29.83 in ESE 2 mph 5 mph 93% 0.00 in 0 W/m2
02:00 63.7 °F 61.6 °F 29.83 in NNE 2 mph 2 mph 93% 0.00 in 0 W/m2
02:05 63.8 °F 61.7 °F 29.83 in ESE 2 mph 2 mph 93% 0.00 in 0 W/m2
02:10 63.8 °F 61.7 °F 29.83 in NNE 2 mph 2 mph 93% 0.00 in 0 W/m2
02:15 63.9 °F 61.8 °F 29.83 in ENE 2 mph 4 mph 93% 0.00 in 0 W/m2
02:20 63.9 °F 61.8 °F 29.83 in ESE 1 mph 1 mph 93% 0.00 in 0 W/m2
02:25 64 °F 61.9 °F 29.83 in NNE 1 mph 1 mph 93% 0.00 in 0 W/m2
02:30 64.1 °F 62 °F 29.82 in NE 1 mph 2 mph 93% 0.00 in 0 W/m2
02:35 64.1 °F 62 °F 29.82 in NE 1 mph 2 mph 93% 0.00 in 0 W/m2
02:40 64.2 °F 62.1 °F 29.82 in NE 1 mph 1 mph 93% 0.00 in 0 W/m2
02:45 64.2 °F 62.1 °F 29.82 in NE 1 mph 1 mph 93% 0.00 in 0 W/m2
02:50 64.3 °F 62.2 °F 29.82 in NE 1 mph 1 mph 93% 0.00 in 0 W/m2
02:55 64.3 °F 62.2 °F 29.82 in East 1 mph 1 mph 93% 0.00 in 0 W/m2
03:00 64.3 °F 62.2 °F 29.82 in NE 1 mph 1 mph 93% 0.00 in 0 W/m2
03:05 64.3 °F 62.2 °F 29.81 in Calm   1 mph 93% 0.00 in 0 W/m2
03:10 64.4 °F 62.3 °F 29.81 in Calm   1 mph 93% 0.00 in 0 W/m2
03:15 64.3 °F 62.2 °F 29.81 in Calm   1 mph 93% 0.00 in 0 W/m2
03:20 64.3 °F 62.2 °F 29.82 in North 1 mph 1 mph 93% 0.00 in 0 W/m2
03:25 64.3 °F 62.2 °F 29.82 in NNE 1 mph 1 mph 93% 2.16 in 0 W/m2
03:30 64.3 °F 62.2 °F 29.80 in ENE 1 mph 3 mph 93% 1.03 in 0 W/m2
03:35 64.3 °F 62.2 °F 29.79 in SE 2 mph 4 mph 93% 0.17 in 0 W/m2
03:40 64.6 °F 62.8 °F 29.79 in East 1 mph 1 mph 94% 0.14 in 0 W/m2
03:45 65.2 °F 63.4 °F 29.80 in ESE 1 mph 2 mph 94% 0.07 in 0 W/m2
03:50 65.4 °F 63.6 °F 29.79 in East 1 mph 1 mph 94% 0.05 in 0 W/m2
03:55 65.5 °F 63.7 °F 29.80 in NNE 1 mph 1 mph 94% 0.05 in 0 W/m2
04:00 65.5 °F 63.7 °F 29.80 in Calm   1 mph 94% 0.07 in 0 W/m2
04:05 65.5 °F 63.7 °F 29.80 in NNW 1 mph 1 mph 94% 0.06 in 0 W/m2
04:10 65.4 °F 63.6 °F 29.80 in North 1 mph 1 mph 94% 0.04 in 0 W/m2
04:15 65.4 °F 63.6 °F 29.79 in Calm   1 mph 94% 0.00 in 0 W/m2
04:20 65.4 °F 63.6 °F 29.79 in Calm     94% 0.00 in 0 W/m2
04:25 65.4 °F 63.6 °F 29.79 in Calm     94% 0.00 in 0 W/m2
04:30 65.4 °F 63.6 °F 29.79 in Calm     94% 0.00 in 0 W/m2
04:35 65.3 °F 63.5 °F 29.79 in Calm     94% 0.00 in 0 W/m2
04:40 65.3 °F 63.5 °F 29.79 in Calm     94% 0.00 in 0 W/m2
04:45 65.4 °F 63.6 °F 29.79 in Calm   2 mph 94% 0.00 in 0 W/m2
04:50 65.4 °F 63.6 °F 29.79 in Calm     94% 0.00 in 0 W/m2
04:55 65.4 °F 63.6 °F 29.79 in Calm   2 mph 94% 0.00 in 0 W/m2
05:00 65.4 °F 63.6 °F 29.79 in North 1 mph 1 mph 94% 0.00 in 0 W/m2
05:05 65.4 °F 63.6 °F 29.78 in NNW 1 mph 1 mph 94% 0.00 in 0 W/m2
05:10 65.4 °F 63.6 °F 29.78 in NW 1 mph 1 mph 94% 0.00 in 0 W/m2
05:15 65.4 °F 63.6 °F 29.79 in West 1 mph 1 mph 94% 0.00 in 0 W/m2
05:20 65.5 °F 63.7 °F 29.78 in NW 1 mph 2 mph 94% 0.00 in 0 W/m2
05:25 65.6 °F 63.8 °F 29.78 in WNW 2 mph 2 mph 94% 0.00 in 0 W/m2
05:30 65.6 °F 63.8 °F 29.78 in NNW 2 mph 2 mph 94% 0.00 in 0 W/m2
05:35 65.6 °F 63.8 °F 29.79 in North 2 mph 2 mph 94% 0.00 in 0 W/m2
05:40 65.7 °F 63.9 °F 29.79 in NNW 2 mph 4 mph 94% 0.00 in 0 W/m2
05:45 65.7 °F 63.9 °F 29.79 in North 3 mph 4 mph 94% 0.00 in 0 W/m2
05:50 65.8 °F 64 °F 29.79 in NNW 2 mph 9 mph 94% 0.00 in 0 W/m2
05:55 65.5 °F 63.4 °F 29.79 in NW 2 mph 9 mph 93% 0.00 in 0 W/m2
06:00 65.2 °F 63.1 °F 29.79 in NW 4 mph 4 mph 93% 0.00 in 0 W/m2
06:05 65 °F 63.2 °F 29.79 in ENE 4 mph 4 mph 94% 0.00 in 0 W/m2
06:10 64.7 °F 62.6 °F 29.79 in ENE 3 mph 3 mph 93% 0.00 in 0 W/m2
06:15 64.5 °F 62.4 °F 29.78 in North 3 mph 3 mph 93% 0.00 in 0 W/m2
06:20 64.4 °F 62.3 °F 29.78 in North 3 mph 6 mph 93% 0.04 in 0 W/m2
06:25 64.3 °F 62.2 °F 29.78 in NNW 3 mph 6 mph 93% 0.04 in 0 W/m2
06:30 64.3 °F 62.2 °F 29.78 in SE 3 mph 3 mph 93% 0.04 in 0 W/m2
06:35 64.2 °F 62.1 °F 29.78 in NNE 3 mph 5 mph 93% 0.04 in 0 W/m2
06:40 64.1 °F 62 °F 29.78 in North 3 mph 4 mph 93% 0.00 in 0 W/m2
06:45 64 °F 61.9 °F 29.78 in North 3 mph 9 mph 93% 0.00 in 5 W/m2
06:50 64 °F 61.9 °F 29.78 in ENE 3 mph 3 mph 93% 0.00 in 9 W/m2
06:55 64 °F 62.2 °F 29.78 in ESE 3 mph 3 mph 94% 0.00 in 7 W/m2
07:00 64.1 °F 62.3 °F 29.79 in NNE 3 mph 4 mph 94% 0.00 in 7 W/m2
07:05 64 °F 62.2 °F 29.78 in NE 2 mph 5 mph 94% 0.00 in 9 W/m2
07:10 64 °F 62.2 °F 29.79 in North 3 mph 3 mph 94% 0.00 in 12 W/m2
07:15 64 °F 62.2 °F 29.79 in NNE 3 mph 3 mph 94% 0.00 in 12 W/m2
07:20 64.1 °F 62.3 °F 29.79 in North 3 mph 3 mph 94% 0.00 in 14 W/m2
07:25 64.2 °F 62.4 °F 29.79 in NNE 3 mph 7 mph 94% 0.00 in 11 W/m2
07:30 64.2 °F 62.4 °F 29.79 in NW 3 mph 7 mph 94% 0.00 in 18 W/m2
07:35 64.1 °F 62.3 °F 29.79 in SE 4 mph 7 mph 94% 0.00 in 26 W/m2
07:40 63.9 °F 62.1 °F 29.79 in NNE 4 mph 4 mph 94% 0.00 in 18 W/m2
07:45 63.7 °F 61.6 °F 29.79 in WNW 4 mph 9 mph 93% 0.00 in 12 W/m2
07:50 63.3 °F 61.2 °F 29.79 in NW 4 mph 4 mph 93% 0.24 in 11 W/m2
07:55 63.1 °F 61 °F 29.79 in SW 4 mph 4 mph 93% 0.11 in 9 W/m2
08:00 63 °F 60.9 °F 29.80 in NNE 4 mph 5 mph 93% 0.06 in 11 W/m2
08:05 62.9 °F 60.8 °F 29.80 in East 4 mph 5 mph 93% 0.04 in 7 W/m2
08:10 62.8 °F 60.7 °F 29.81 in WNW 4 mph 8 mph 93% 0.00 in 5 W/m2
08:15 62.7 °F 60.6 °F 29.80 in NE 4 mph 8 mph 93% 0.00 in 7 W/m2
08:20 62.5 °F 60.4 °F 29.80 in NW 4 mph 7 mph 93% 0.00 in 7 W/m2
08:25 62.2 °F 60.2 °F 29.80 in NNE 5 mph 7 mph 93% 0.16 in 7 W/m2
08:30 62 °F 60 °F 29.80 in NNE 5 mph 5 mph 93% 0.26 in 7 W/m2
08:35 61.9 °F 59.9 °F 29.80 in West 4 mph 5 mph 93% 0.21 in 7 W/m2
08:40 61.9 °F 59.9 °F 29.80 in WSW 3 mph 7 mph 93% 0.23 in 5 W/m2
08:45 61.8 °F 59.8 °F 29.80 in North 3 mph 7 mph 93% 0.30 in 11 W/m2
08:50 61.8 °F 59.8 °F 29.80 in North 3 mph 3 mph 93% 0.21 in 5 W/m2
08:55 61.8 °F 59.8 °F 29.81 in North 3 mph 5 mph 93% 0.13 in 11 W/m2
09:00 61.7 °F 59.7 °F 29.81 in North 3 mph 4 mph 93% 0.10 in 25 W/m2
09:05 61.7 °F 60 °F 29.80 in NE 3 mph 4 mph 94% 0.13 in 30 W/m2
09:10 61.8 °F 60.1 °F 29.80 in North 3 mph 3 mph 94% 0.11 in 28 W/m2
09:15 61.8 °F 60.1 °F 29.80 in North 3 mph 3 mph 94% 0.06 in 26 W/m2
09:20 61.9 °F 60.2 °F 29.80 in North 3 mph 3 mph 94% 0.06 in 21 W/m2
09:25 61.9 °F 60.2 °F 29.80 in North 3 mph 3 mph 94% 0.06 in 54 W/m2
09:30 62 °F 60.3 °F 29.80 in North 3 mph 3 mph 94% 0.04 in 67 W/m2
09:35 62 °F 60.3 °F 29.80 in North 3 mph 3 mph 94% 0.00 in 90 W/m2
09:40 62 °F 60.3 °F 29.80 in North 3 mph 4 mph 94% 0.00 in 79 W/m2
09:45 62 °F 60.3 °F 29.80 in NNE 3 mph 4 mph 94% 0.00 in 69 W/m2
09:50 62.1 °F 60.4 °F 29.79 in North 3 mph 3 mph 94% 0.00 in 100 W/m2
09:55 62.1 °F 60.4 °F 29.79 in North 3 mph 6 mph 94% 0.00 in 149 W/m2
10:00 62.2 °F 60.5 °F 29.80 in NE 4 mph 4 mph 94% 0.00 in 153 W/m2
10:05 62.3 °F 60.6 °F 29.80 in NW 3 mph 6 mph 94% 0.00 in 162 W/m2
10:10 62.4 °F 60.7 °F 29.80 in North 3 mph 9 mph 94% 0.00 in 139 W/m2
10:15 62.4 °F 60.7 °F 29.80 in West 3 mph 9 mph 94% 0.00 in 169 W/m2
10:20 62.4 °F 60.7 °F 29.80 in NNW 3 mph 7 mph 94% 0.00 in 142 W/m2
10:25 62.4 °F 60.7 °F 29.80 in North 3 mph 7 mph 94% 0.00 in 139 W/m2
10:30 62.5 °F 60.7 °F 29.80 in West 3 mph 3 mph 94% 0.00 in 91 W/m2
10:35 62.5 °F 60.7 °F 29.80 in North 3 mph 3 mph 94% 0.00 in 111 W/m2
10:40 62.4 °F 60.7 °F 29.80 in NNW 3 mph 4 mph 94% 0.00 in 128 W/m2
10:45 62.3 °F 60.6 °F 29.81 in NNW 4 mph 7 mph 94% 0.00 in 139 W/m2
10:50 62.3 °F 60.6 °F 29.81 in NE 5 mph 5 mph 94% 0.00 in 98 W/m2
10:55 62.2 °F 60.2 °F 29.81 in NW 4 mph 6 mph 93% 0.00 in 207 W/m2
11:00 62.1 °F 60.1 °F 29.82 in NW 4 mph 4 mph 93% 0.00 in 93 W/m2
11:05 62.1 °F 60.1 °F 29.82 in NNW 4 mph 4 mph 93% 0.00 in 72 W/m2
11:10 62 °F 60 °F 29.82 in ENE 4 mph 4 mph 93% 0.00 in 76 W/m2
11:15 61.9 °F 59.9 °F 29.82 in WNW 3 mph 4 mph 93% 0.00 in 65 W/m2
11:20 61.8 °F 59.8 °F 29.82 in WNW 3 mph 3 mph 93% 0.00 in 109 W/m2
11:25 61.8 °F 59.8 °F 29.82 in NE 4 mph 4 mph 93% 0.00 in 113 W/m2
11:30 61.8 °F 59.8 °F 29.81 in NW 5 mph 8 mph 93% 0.00 in 188 W/m2
11:35 61.8 °F 59.8 °F 29.82 in ENE 4 mph 8 mph 93% 0.00 in 162 W/m2
11:40 61.8 °F 59.8 °F 29.82 in NNE 3 mph 4 mph 93% 0.00 in 76 W/m2
11:45 61.8 °F 59.8 °F 29.82 in North 3 mph 4 mph 93% 0.00 in 169 W/m2
11:50 61.7 °F 59.7 °F 29.82 in NNE 3 mph 4 mph 93% 0.00 in 156 W/m2
11:55 61.6 °F 59.6 °F 29.82 in NW 4 mph 4 mph 93% 0.00 in 135 W/m2
12:00 61.6 °F 59.6 °F 29.82 in NE 4 mph 4 mph 93% 0.00 in 165 W/m2
12:05 61.5 °F 59.5 °F 29.82 in NNW 3 mph 8 mph 93% 0.00 in 153 W/m2
12:10 61.6 °F 59.6 °F 29.81 in NE 3 mph 7 mph 93% 0.00 in 209 W/m2
12:15 61.6 °F 59.6 °F 29.81 in NNW 4 mph 7 mph 93% 0.00 in 221 W/m2
12:20 61.6 °F 59.6 °F 29.82 in NW 3 mph 3 mph 93% 0.00 in 183 W/m2
12:25 61.6 °F 59.6 °F 29.81 in NE 3 mph 4 mph 93% 0.00 in 216 W/m2
12:30 61.7 °F 59.7 °F 29.81 in NNW 4 mph 6 mph 93% 0.00 in 186 W/m2
12:35 61.7 °F 59.7 °F 29.81 in NNW 4 mph 6 mph 93% 0.00 in 135 W/m2
12:40 61.7 °F 59.7 °F 29.82 in WSW 4 mph 4 mph 93% 0.00 in 146 W/m2
12:45 61.7 °F 59.7 °F 29.81 in East 4 mph 5 mph 93% 0.00 in 153 W/m2
12:50 61.7 °F 59.7 °F 29.81 in NNE 4 mph 6 mph 93% 0.00 in 183 W/m2
12:55 61.7 °F 59.7 °F 29.82 in North 3 mph 6 mph 93% 0.00 in 225 W/m2
13:00 61.7 °F 59.7 °F 29.82 in NNW 3 mph 3 mph 93% 0.00 in 186 W/m2
13:05 61.6 °F 59.6 °F 29.81 in NNW 3 mph 3 mph 93% 0.00 in 171 W/m2
13:10 61.7 °F 59.7 °F 29.81 in ENE 3 mph 3 mph 93% 0.00 in 188 W/m2
13:15 61.7 °F 59.7 °F 29.81 in NNE 3 mph 3 mph 93% 0.00 in 236 W/m2
13:20 61.8 °F 59.8 °F 29.81 in NNE 3 mph 5 mph 93% 0.00 in 255 W/m2
13:25 62 °F 59.6 °F 29.81 in NNW 3 mph 5 mph 92% 0.00 in 232 W/m2
13:30 62 °F 59.6 °F 29.81 in ENE 3 mph 6 mph 92% 0.00 in 267 W/m2
13:35 62 °F 59.6 °F 29.82 in NNW 3 mph 6 mph 92% 0.00 in 214 W/m2
13:40 62.1 °F 59.7 °F 29.82 in East 3 mph 3 mph 92% 0.00 in 255 W/m2
13:45 62.1 °F 59.7 °F 29.82 in NE 3 mph 4 mph 92% 0.00 in 162 W/m2
13:50 62.2 °F 59.8 °F 29.82 in North 3 mph 3 mph 92% 0.00 in 197 W/m2
13:55 62.1 °F 59.7 °F 29.82 in NNE 3 mph 4 mph 92% 0.00 in 272 W/m2
14:00 62.2 °F 59.8 °F 29.82 in North 3 mph 6 mph 92% 0.00 in 279 W/m2
14:05 62.2 °F 59.5 °F 29.83 in ENE 4 mph 6 mph 91% 0.00 in 167 W/m2
14:10 62.2 °F 59.5 °F 29.83 in NNE 4 mph 4 mph 91% 0.00 in 149 W/m2
14:15 62.2 °F 59.5 °F 29.83 in North 3 mph 4 mph 91% 0.00 in 146 W/m2
14:20 62.2 °F 59.5 °F 29.83 in ENE 3 mph 3 mph 91% 0.00 in 211 W/m2
14:25 62.1 °F 59.1 °F 29.83 in NNE 4 mph 4 mph 90% 0.00 in 149 W/m2
14:30 62.2 °F 59.2 °F 29.83 in NNW 3 mph 3 mph 90% 0.00 in 158 W/m2
14:35 62.2 °F 59.2 °F 29.83 in SSE 3 mph 3 mph 90% 0.00 in 209 W/m2
14:40 62.2 °F 59.2 °F 29.83 in ESE 4 mph 4 mph 90% 0.00 in 151 W/m2
14:45 62.2 °F 59.2 °F 29.83 in NNE 4 mph 7 mph 90% 0.00 in 163 W/m2
14:50 62.2 °F 59.2 °F 29.83 in East 4 mph 4 mph 90% 0.00 in 137 W/m2
14:55 62.2 °F 59.2 °F 29.83 in ESE 3 mph 4 mph 90% 0.00 in 186 W/m2
15:00 62.2 °F 59.2 °F 29.83 in NNE 3 mph 3 mph 90% 0.00 in 255 W/m2
15:05 62.4 °F 59.4 °F 29.83 in North 4 mph 5 mph 90% 0.00 in 197 W/m2
15:10 62.4 °F 59.4 °F 29.83 in NE 4 mph 4 mph 90% 0.00 in 367 W/m2
15:15 62.4 °F 59.1 °F 29.83 in North 4 mph 4 mph 89% 0.00 in 202 W/m2
15:20 62.4 °F 59.1 °F 29.83 in NNE 4 mph 4 mph 89% 0.00 in 253 W/m2
15:25 62.4 °F 58.8 °F 29.83 in NNW 4 mph 4 mph 88% 0.00 in 271 W/m2
15:30 62.4 °F 58.8 °F 29.84 in NNW 4 mph 7 mph 88% 0.00 in 169 W/m2
15:35 62.3 °F 58.7 °F 29.84 in SE 4 mph 7 mph 88% 0.00 in 171 W/m2
15:40 62.3 °F 58.7 °F 29.84 in NE 4 mph 4 mph 88% 0.00 in 165 W/m2
15:45 62.3 °F 58.7 °F 29.84 in ENE 4 mph 4 mph 88% 0.00 in 142 W/m2
15:50 62.4 °F 58.8 °F 29.84 in North 4 mph 5 mph 88% 0.00 in 197 W/m2
15:55 62.4 °F 58.8 °F 29.84 in East 4 mph 5 mph 88% 0.00 in 120 W/m2
16:00 62.4 °F 58.8 °F 29.84 in North 4 mph 4 mph 88% 0.00 in 185 W/m2
16:05 62.3 °F 58.7 °F 29.84 in NNE 4 mph 4 mph 88% 0.00 in 155 W/m2
16:10 62.2 °F 58.6 °F 29.84 in East 4 mph 4 mph 88% 0.00 in 200 W/m2
16:15 62.1 °F 58.5 °F 29.84 in NNW 4 mph 5 mph 88% 0.00 in 178 W/m2
16:20 62.1 °F 58.5 °F 29.84 in NNE 4 mph 4 mph 88% 0.00 in 172 W/m2
16:25 62 °F 58.4 °F 29.84 in ESE 4 mph 4 mph 88% 0.00 in 121 W/m2
16:30 62 °F 58.4 °F 29.85 in NW 3 mph 3 mph 88% 0.00 in 148 W/m2
16:35 61.8 °F 58.2 °F 29.85 in NNW 4 mph 4 mph 88% 0.00 in 120 W/m2
16:40 61.8 °F 58.2 °F 29.85 in North 4 mph 9 mph 88% 0.00 in 137 W/m2
16:45 61.7 °F 58.1 °F 29.85 in North 4 mph 9 mph 88% 0.00 in 139 W/m2
16:50 61.5 °F 57.9 °F 29.85 in NNW 4 mph 5 mph 88% 0.00 in 148 W/m2
16:55 61.5 °F 57.9 °F 29.85 in NNW 4 mph 5 mph 88% 0.00 in 120 W/m2
17:00 61.3 °F 57.7 °F 29.85 in North 5 mph 7 mph 88% 0.00 in 116 W/m2
17:05 61.2 °F 57.6 °F 29.85 in SSE 5 mph 7 mph 88% 0.00 in 100 W/m2
17:10 61 °F 57.4 °F 29.86 in ENE 5 mph 6 mph 88% 0.00 in 88 W/m2
17:15 60.8 °F 57.2 °F 29.86 in North 5 mph 6 mph 88% 0.00 in 83 W/m2
17:20 60.8 °F 57.2 °F 29.86 in NE 4 mph 4 mph 88% 0.00 in 100 W/m2
17:25 60.5 °F 56.9 °F 29.86 in NE 4 mph 5 mph 88% 0.00 in 86 W/m2
17:30 60.5 °F 56.9 °F 29.86 in NNW 4 mph 7 mph 88% 0.00 in 70 W/m2
17:35 60.4 °F 56.8 °F 29.86 in ENE 4 mph 7 mph 88% 0.00 in 74 W/m2
17:40 60.4 °F 56.8 °F 29.86 in NE 5 mph 5 mph 88% 0.00 in 74 W/m2
17:45 60.3 °F 56.7 °F 29.86 in NNE 4 mph 8 mph 88% 0.00 in 56 W/m2
17:50 60.1 °F 56.5 °F 29.86 in ESE 4 mph 6 mph 88% 0.00 in 56 W/m2
17:55 60.1 °F 56.5 °F 29.86 in NNW 4 mph 7 mph 88% 0.00 in 102 W/m2
18:00 60 °F 56.4 °F 29.86 in NW 5 mph 6 mph 88% 0.00 in 39 W/m2
18:05 59.9 °F 56.3 °F 29.86 in North 5 mph 7 mph 88% 0.00 in 63 W/m2
18:10 59.8 °F 56.2 °F 29.86 in NNW 5 mph 5 mph 88% 0.00 in 58 W/m2
18:15 59.6 °F 56 °F 29.87 in South 5 mph 5 mph 88% 0.00 in 60 W/m2
18:20 59.6 °F 56.4 °F 29.87 in NE 5 mph 5 mph 89% 0.00 in 30 W/m2
18:25 59.5 °F 56.3 °F 29.87 in NE 5 mph 5 mph 89% 0.00 in 46 W/m2
18:30 59.5 °F 56.3 °F 29.87 in NW 5 mph 5 mph 89% 0.00 in 35 W/m2
18:35 59.4 °F 56.2 °F 29.86 in NNW 4 mph 5 mph 89% 0.00 in 37 W/m2
18:40 59.4 °F 56.2 °F 29.86 in NNE 4 mph 4 mph 89% 0.00 in 18 W/m2
18:45 59.4 °F 56.2 °F 29.87 in NE 5 mph 7 mph 89% 0.00 in 18 W/m2
18:50 59.3 °F 56.1 °F 29.87 in North 4 mph 4 mph 89% 0.00 in 21 W/m2
18:55 59.2 °F 56 °F 29.86 in NE 4 mph 5 mph 89% 0.00 in 28 W/m2
19:00 59.1 °F 55.9 °F 29.86 in NNW 4 mph 7 mph 89% 0.00 in 35 W/m2
19:05 59.2 °F 56 °F 29.87 in North 4 mph 7 mph 89% 0.00 in 32 W/m2
19:10 59.1 °F 55.9 °F 29.88 in North 4 mph 8 mph 89% 0.00 in 21 W/m2
19:15 59.1 °F 55.9 °F 29.88 in WNW 4 mph 8 mph 89% 0.00 in 30 W/m2
19:20 59.1 °F 55.9 °F 29.87 in NNE 5 mph 5 mph 89% 0.00 in 54 W/m2
19:25 59.1 °F 55.9 °F 29.87 in North 5 mph 5 mph 89% 0.00 in 46 W/m2
19:30 58.9 °F 55.7 °F 29.88 in East 5 mph 5 mph 89% 0.00 in 30 W/m2
19:35 59 °F 55.8 °F 29.88 in WSW 4 mph 5 mph 89% 0.00 in 23 W/m2
19:40 58.9 °F 55.7 °F 29.87 in NNW 4 mph 10 mph 89% 0.00 in 23 W/m2
19:50 58.9 °F 55.7 °F 29.87 in North 4 mph 4 mph 89% 0.00 in 19 W/m2
19:55 58.9 °F 55.7 °F 29.87 in NE 4 mph 6 mph 89% 0.00 in 19 W/m2
20:00 58.9 °F 55.7 °F 29.87 in NNW 4 mph 4 mph 89% 0.00 in 16 W/m2
20:05 58.9 °F 55.7 °F 29.87 in NE 4 mph 4 mph 89% 0.00 in 12 W/m2
20:10 58.9 °F 55.7 °F 29.87 in NE 4 mph 4 mph 89% 0.00 in 12 W/m2
20:15 58.8 °F 55.6 °F 29.87 in NE 4 mph 4 mph 89% 0.00 in 18 W/m2
20:20 58.8 °F 55.6 °F 29.87 in North 4 mph 4 mph 89% 0.00 in 12 W/m2
20:25 58.8 °F 55.6 °F 29.87 in NNW 4 mph 6 mph 89% 0.00 in 7 W/m2
20:30 58.8 °F 55.3 °F 29.87 in SE 4 mph 4 mph 88% 0.00 in 7 W/m2
20:35 58.8 °F 55.3 °F 29.87 in NE 4 mph 8 mph 88% 0.00 in 9 W/m2
20:40 58.9 °F 55.4 °F 29.87 in NNE 4 mph 9 mph 88% 0.00 in 9 W/m2
20:45 58.8 °F 55.3 °F 29.87 in North 4 mph 9 mph 88% 0.00 in 9 W/m2
20:50 58.9 °F 55.4 °F 29.87 in NE 4 mph 5 mph 88% 0.00 in 7 W/m2
20:55 58.9 °F 55.4 °F 29.87 in ENE 4 mph 5 mph 88% 0.00 in 5 W/m2
21:00 58.9 °F 55 °F 29.87 in ENE 4 mph 4 mph 87% 0.00 in 7 W/m2
21:05 58.9 °F 55 °F 29.87 in West 4 mph 4 mph 87% 0.00 in 0 W/m2
21:10 58.9 °F 55 °F 29.87 in NE 4 mph 7 mph 87% 0.00 in 0 W/m2
21:15 58.9 °F 55 °F 29.87 in NNW 3 mph 7 mph 87% 0.00 in 0 W/m2
21:20 59 °F 55.4 °F 29.87 in NE 3 mph 3 mph 88% 0.00 in 0 W/m2
21:25 59 °F 55.1 °F 29.87 in North 4 mph 4 mph 87% 0.00 in 0 W/m2
21:30 59.1 °F 55.2 °F 29.88 in North 4 mph 4 mph 87% 0.00 in 0 W/m2
21:35 59.1 °F 55.5 °F 29.87 in WNW 3 mph 5 mph 88% 0.00 in 0 W/m2
21:40 59.1 °F 55.2 °F 29.88 in NE 3 mph 5 mph 87% 0.00 in 0 W/m2
21:45 59.2 °F 55.6 °F 29.88 in North 3 mph 5 mph 88% 0.00 in 0 W/m2
21:50 59.1 °F 55.2 °F 29.88 in NNE 3 mph 3 mph 87% 0.00 in 0 W/m2
21:55 59.1 °F 55.2 °F 29.88 in NW 3 mph 6 mph 87% 0.00 in 0 W/m2
22:00 59.1 °F 55.2 °F 29.89 in NE 3 mph 3 mph 87% 0.00 in 0 W/m2
22:05 59.1 °F 55.2 °F 29.89 in NNE 3 mph 3 mph 87% 0.00 in 0 W/m2
22:10 59.2 °F 55.3 °F 29.89 in NE 3 mph 3 mph 87% 0.00 in 0 W/m2
22:15 59.3 °F 55.4 °F 29.90 in ENE 3 mph 3 mph 87% 0.00 in 0 W/m2
22:20 59.3 °F 55.4 °F 29.90 in NNW 4 mph 5 mph 87% 0.00 in 0 W/m2
22:25 59.3 °F 55.4 °F 29.90 in NNE 4 mph 5 mph 87% 0.00 in 0 W/m2
22:30 59.4 °F 55.5 °F 29.90 in ENE 3 mph 3 mph 87% 0.00 in 0 W/m2
22:35 59.4 °F 55.5 °F 29.90 in NNE 4 mph 4 mph 87% 0.00 in 0 W/m2
22:40 59.4 °F 55.5 °F 29.90 in WNW 3 mph 3 mph 87% 0.00 in 0 W/m2
22:45 59.5 °F 55.6 °F 29.90 in NE 3 mph 3 mph 87% 0.00 in 0 W/m2
22:50 59.5 °F 55.6 °F 29.90 in SE 3 mph 3 mph 87% 0.00 in 0 W/m2
22:55 59.5 °F 55.6 °F 29.90 in NE 3 mph 3 mph 87% 0.00 in 0 W/m2
23:00 59.5 °F 55.6 °F 29.90 in SSW 4 mph 4 mph 87% 0.00 in 0 W/m2
23:05 59.5 °F 55.3 °F 29.90 in North 3 mph 6 mph 86% 0.00 in 0 W/m2
23:10 59.4 °F 55.2 °F 29.91 in NE 3 mph 3 mph 86% 0.00 in 0 W/m2
23:15 59.5 °F 55.3 °F 29.91 in North 3 mph 3 mph 86% 0.00 in 0 W/m2
23:20 59.5 °F 55.3 °F 29.91 in East 3 mph 3 mph 86% 0.00 in 0 W/m2
23:25 59.5 °F 55.3 °F 29.91 in NNW 3 mph 3 mph 86% 0.00 in 0 W/m2
23:30 59.6 °F 55.4 °F 29.91 in NE 2 mph 4 mph 86% 0.00 in 0 W/m2
23:35 59.6 °F 55.4 °F 29.91 in NW 3 mph 4 mph 86% 0.00 in 0 W/m2
Sand Point, Michigan, USA
Compliments of Weather Underground - 2 mb